Seattle, Washington
Traffic Map
Current Weather Conditions
Seattle, Washington
Clear
Clear
43°
Feels Like: 43°
Wind Chill: 43° Ceiling: Unl
Heat Index: 43° Visibility: 10mi
Dew Point: 38° Wind: 0mph
Humidity: 82% Direction: ° ()
Pressure: 30.03in Gusts: 0mph
Raw Report DataKBFI 210353Z 00000KT 10SM CLR 06/03 A3003 RMK AO2 SLP168 T00610033
Traffic Incident Summary
Active as of:
Severity:
Category:
InformationThere was an issue retrieving the traffic information for this location. Please try a different location or try again shortly.
Advertisements